sensor_id;sensor_type;location;lat;lon;timestamp;pressure;altitude;pressure_sealevel;temperature;humidity
81162;BME280;70638;-33.792;151.032;2023-08-21T00:01:12;101691.02;;;15.23;58.14
81162;BME280;70638;-33.792;151.032;2023-08-21T00:03:42;101693.15;;;15.26;59.26
81162;BME280;70638;-33.792;151.032;2023-08-21T00:08:43;101694.31;;;15.21;58.97
81162;BME280;70638;-33.792;151.032;2023-08-21T00:11:13;101694.02;;;15.49;56.77
81162;BME280;70638;-33.792;151.032;2023-08-21T00:13:49;101692.65;;;15.65;55.10
81162;BME280;70638;-33.792;151.032;2023-08-21T00:16:14;101690.41;;;15.55;53.50
81162;BME280;70638;-33.792;151.032;2023-08-21T00:18:47;101685.05;;;15.62;54.41
81162;BME280;70638;-33.792;151.032;2023-08-21T00:21:14;101686.64;;;15.72;55.16
81162;BME280;70638;-33.792;151.032;2023-08-21T00:23:44;101683.70;;;15.70;53.55
81162;BME280;70638;-33.792;151.032;2023-08-21T00:26:15;101678.31;;;15.95;53.44
81162;BME280;70638;-33.792;151.032;2023-08-21T00:28:46;101679.89;;;15.84;53.46
81162;BME280;70638;-33.792;151.032;2023-08-21T00:31:15;101672.57;;;15.91;53.84
81162;BME280;70638;-33.792;151.032;2023-08-21T00:33:46;101675.02;;;16.04;53.80
81162;BME280;70638;-33.792;151.032;2023-08-21T00:36:16;101674.09;;;16.10;56.03
81162;BME280;70638;-33.792;151.032;2023-08-21T00:38:46;101667.86;;;16.08;56.90
81162;BME280;70638;-33.792;151.032;2023-08-21T00:41:16;101663.80;;;16.14;54.10
81162;BME280;70638;-33.792;151.032;2023-08-21T00:43:46;101659.09;;;16.22;53.83
81162;BME280;70638;-33.792;151.032;2023-08-21T00:46:17;101648.61;;;16.39;53.58
81162;BME280;70638;-33.792;151.032;2023-08-21T00:48:47;101650.22;;;16.35;51.27
81162;BME280;70638;-33.792;151.032;2023-08-21T00:51:17;101640.20;;;16.57;51.74
81162;BME280;70638;-33.792;151.032;2023-08-21T00:53:47;101636.72;;;16.57;51.19
81162;BME280;70638;-33.792;151.032;2023-08-21T00:56:18;101633.02;;;16.79;51.12
81162;BME280;70638;-33.792;151.032;2023-08-21T00:58:49;101631.73;;;16.80;51.62
81162;BME280;70638;-33.792;151.032;2023-08-21T01:01:24;101629.66;;;16.61;51.07
81162;BME280;70638;-33.792;151.032;2023-08-21T01:03:49;101623.19;;;16.72;50.86
81162;BME280;70638;-33.792;151.032;2023-08-21T01:06:20;101621.56;;;16.88;50.05
81162;BME280;70638;-33.792;151.032;2023-08-21T01:09:15;101617.17;;;16.96;50.26
81162;BME280;70638;-33.792;151.032;2023-08-21T01:11:46;101611.94;;;17.12;49.41
81162;BME280;70638;-33.792;151.032;2023-08-21T01:16:24;101607.92;;;16.90;53.14
81162;BME280;70638;-33.792;151.032;2023-08-21T01:18:53;101602.36;;;16.93;49.48
81162;BME280;70638;-33.792;151.032;2023-08-21T01:21:22;101596.07;;;16.94;49.97
81162;BME280;70638;-33.792;151.032;2023-08-21T01:23:53;101596.25;;;17.02;49.13
81162;BME280;70638;-33.792;151.032;2023-08-21T01:26:23;101588.88;;;17.10;50.88
81162;BME280;70638;-33.792;151.032;2023-08-21T01:28:59;101588.73;;;17.20;48.52
81162;BME280;70638;-33.792;151.032;2023-08-21T01:31:31;101584.10;;;17.30;49.74
81162;BME280;70638;-33.792;151.032;2023-08-21T01:34:00;101576.23;;;17.33;49.62
81162;BME280;70638;-33.792;151.032;2023-08-21T01:36:25;101572.81;;;17.58;49.47
81162;BME280;70638;-33.792;151.032;2023-08-21T01:38:55;101569.59;;;17.51;49.58
81162;BME280;70638;-33.792;151.032;2023-08-21T01:41:26;101562.05;;;17.37;48.36
81162;BME280;70638;-33.792;151.032;2023-08-21T01:43:56;101554.17;;;17.31;51.64
81162;BME280;70638;-33.792;151.032;2023-08-21T01:46:27;101553.38;;;17.37;51.59
81162;BME280;70638;-33.792;151.032;2023-08-21T01:49:05;101546.80;;;17.42;52.26
81162;BME280;70638;-33.792;151.032;2023-08-21T01:51:27;101539.34;;;17.44;51.33
81162;BME280;70638;-33.792;151.032;2023-08-21T01:53:58;101533.84;;;17.55;47.15
81162;BME280;70638;-33.792;151.032;2023-08-21T01:56:28;101526.81;;;17.68;47.33
81162;BME280;70638;-33.792;151.032;2023-08-21T01:58:58;101520.64;;;17.74;48.64
81162;BME280;70638;-33.792;151.032;2023-08-21T02:01:28;101515.92;;;17.84;48.15
81162;BME280;70638;-33.792;151.032;2023-08-21T02:03:58;101508.13;;;17.88;48.83
81162;BME280;70638;-33.792;151.032;2023-08-21T02:06:28;101501.17;;;17.92;48.72
81162;BME280;70638;-33.792;151.032;2023-08-21T02:08:58;101493.80;;;18.23;46.62
81162;BME280;70638;-33.792;151.032;2023-08-21T02:11:34;101494.52;;;18.32;47.58
81162;BME280;70638;-33.792;151.032;2023-08-21T02:13:59;101490.05;;;18.37;47.87
81162;BME280;70638;-33.792;151.032;2023-08-21T02:16:30;101486.31;;;18.39;45.39
81162;BME280;70638;-33.792;151.032;2023-08-21T02:19:00;101478.92;;;18.26;45.05
81162;BME280;70638;-33.792;151.032;2023-08-21T02:21:30;101474.99;;;18.23;46.17
81162;BME280;70638;-33.792;151.032;2023-08-21T02:24:00;101475.21;;;18.57;48.21
81162;BME280;70638;-33.792;151.032;2023-08-21T02:26:30;101467.99;;;18.62;45.65
81162;BME280;70638;-33.792;151.032;2023-08-21T02:29:01;101461.78;;;18.84;45.65
81162;BME280;70638;-33.792;151.032;2023-08-21T02:31:35;101454.94;;;18.99;44.59
81162;BME280;70638;-33.792;151.032;2023-08-21T02:34:02;101456.39;;;18.57;45.68
81162;BME280;70638;-33.792;151.032;2023-08-21T02:36:32;101456.50;;;18.65;45.07
81162;BME280;70638;-33.792;151.032;2023-08-21T02:39:03;101442.66;;;18.51;45.93
81162;BME280;70638;-33.792;151.032;2023-08-21T02:41:33;101438.94;;;18.79;44.38
81162;BME280;70638;-33.792;151.032;2023-08-21T02:44:03;101444.77;;;18.72;46.44
81162;BME280;70638;-33.792;151.032;2023-08-21T02:46:35;101431.89;;;18.89;44.36
81162;BME280;70638;-33.792;151.032;2023-08-21T02:49:04;101424.07;;;18.97;45.12
81162;BME280;70638;-33.792;151.032;2023-08-21T02:51:34;101422.56;;;19.04;45.68
81162;BME280;70638;-33.792;151.032;2023-08-21T02:54:10;101419.73;;;19.04;45.75
81162;BME280;70638;-33.792;151.032;2023-08-21T02:56:35;101409.05;;;18.89;45.06
81162;BME280;70638;-33.792;151.032;2023-08-21T02:59:06;101405.23;;;18.91;45.82
81162;BME280;70638;-33.792;151.032;2023-08-21T03:01:37;101402.41;;;18.97;46.64
81162;BME280;70638;-33.792;151.032;2023-08-21T03:04:06;101396.80;;;18.90;45.23
81162;BME280;70638;-33.792;151.032;2023-08-21T03:06:36;101387.19;;;19.19;45.97
81162;BME280;70638;-33.792;151.032;2023-08-21T03:09:07;101385.89;;;19.39;45.80
81162;BME280;70638;-33.792;151.032;2023-08-21T03:11:37;101383.60;;;19.38;44.84
81162;BME280;70638;-33.792;151.032;2023-08-21T03:14:07;101385.03;;;19.37;45.24
81162;BME280;70638;-33.792;151.032;2023-08-21T03:16:38;101384.45;;;19.36;45.73
81162;BME280;70638;-33.792;151.032;2023-08-21T03:19:08;101382.55;;;19.43;44.97
81162;BME280;70638;-33.792;151.032;2023-08-21T03:21:39;101379.93;;;19.38;44.57
81162;BME280;70638;-33.792;151.032;2023-08-21T03:24:09;101377.81;;;19.25;44.98
81162;BME280;70638;-33.792;151.032;2023-08-21T03:26:39;101381.73;;;19.22;45.87
81162;BME280;70638;-33.792;151.032;2023-08-21T03:29:09;101373.36;;;19.21;44.67
81162;BME280;70638;-33.792;151.032;2023-08-21T03:31:39;101364.28;;;19.48;43.30
81162;BME280;70638;-33.792;151.032;2023-08-21T03:34:10;101360.81;;;19.32;42.99
81162;BME280;70638;-33.792;151.032;2023-08-21T03:36:41;101356.81;;;19.46;42.27
81162;BME280;70638;-33.792;151.032;2023-08-21T03:39:10;101361.93;;;19.29;43.79
81162;BME280;70638;-33.792;151.032;2023-08-21T03:41:41;101362.80;;;19.31;44.36
81162;BME280;70638;-33.792;151.032;2023-08-21T03:44:11;101361.23;;;19.37;44.21
81162;BME280;70638;-33.792;151.032;2023-08-21T03:49:11;101353.42;;;19.25;44.41
81162;BME280;70638;-33.792;151.032;2023-08-21T03:51:42;101356.48;;;19.41;45.28
81162;BME280;70638;-33.792;151.032;2023-08-21T03:54:12;101356.60;;;19.63;42.51
81162;BME280;70638;-33.792;151.032;2023-08-21T03:56:42;101349.53;;;19.57;41.38
81162;BME280;70638;-33.792;151.032;2023-08-21T03:59:13;101348.05;;;19.35;42.26
81162;BME280;70638;-33.792;151.032;2023-08-21T04:01:43;101345.47;;;19.29;44.05
81162;BME280;70638;-33.792;151.032;2023-08-21T04:04:13;101340.44;;;19.41;43.65
81162;BME280;70638;-33.792;151.032;2023-08-21T04:06:43;101342.72;;;19.57;42.98
81162;BME280;70638;-33.792;151.032;2023-08-21T04:09:20;101340.83;;;19.53;43.86
81162;BME280;70638;-33.792;151.032;2023-08-21T04:11:44;101332.89;;;19.53;42.63
81162;BME280;70638;-33.792;151.032;2023-08-21T04:14:14;101337.59;;;19.48;44.12
81162;BME280;70638;-33.792;151.032;2023-08-21T04:16:45;101335.05;;;19.35;42.68
81162;BME280;70638;-33.792;151.032;2023-08-21T04:19:15;101332.28;;;19.22;43.10
81162;BME280;70638;-33.792;151.032;2023-08-21T04:21:45;101330.92;;;19.20;42.14
81162;BME280;70638;-33.792;151.032;2023-08-21T04:24:15;101328.52;;;19.20;39.19
81162;BME280;70638;-33.792;151.032;2023-08-21T04:26:45;101331.50;;;19.10;42.09
81162;BME280;70638;-33.792;151.032;2023-08-21T04:29:15;101324.33;;;19.19;41.60
81162;BME280;70638;-33.792;151.032;2023-08-21T04:31:50;101318.45;;;19.31;41.09
81162;BME280;70638;-33.792;151.032;2023-08-21T04:34:16;101316.87;;;19.55;40.09
81162;BME280;70638;-33.792;151.032;2023-08-21T04:36:46;101313.96;;;19.48;39.73
81162;BME280;70638;-33.792;151.032;2023-08-21T04:39:16;101313.91;;;19.39;39.53
81162;BME280;70638;-33.792;151.032;2023-08-21T04:41:46;101314.20;;;19.25;40.18
81162;BME280;70638;-33.792;151.032;2023-08-21T04:44:16;101310.50;;;19.34;37.29
81162;BME280;70638;-33.792;151.032;2023-08-21T04:46:48;101306.86;;;19.13;37.37
81162;BME280;70638;-33.792;151.032;2023-08-21T04:49:17;101304.69;;;18.98;39.39
81162;BME280;70638;-33.792;151.032;2023-08-21T04:54:17;101309.36;;;18.82;41.20
81162;BME280;70638;-33.792;151.032;2023-08-21T04:56:47;101306.28;;;18.81;37.45
81162;BME280;70638;-33.792;151.032;2023-08-21T04:59:17;101305.86;;;18.77;37.44
81162;BME280;70638;-33.792;151.032;2023-08-21T05:01:48;101301.90;;;18.65;39.07
81162;BME280;70638;-33.792;151.032;2023-08-21T05:04:18;101303.86;;;18.70;39.42
81162;BME280;70638;-33.792;151.032;2023-08-21T05:06:48;101305.34;;;18.97;39.19
81162;BME280;70638;-33.792;151.032;2023-08-21T05:09:18;101305.19;;;18.93;39.67
81162;BME280;70638;-33.792;151.032;2023-08-21T05:11:48;101301.59;;;18.99;38.76
81162;BME280;70638;-33.792;151.032;2023-08-21T05:14:24;101306.23;;;18.71;41.91
81162;BME280;70638;-33.792;151.032;2023-08-21T05:16:49;101308.23;;;18.87;38.01
81162;BME280;70638;-33.792;151.032;2023-08-21T05:19:19;101303.79;;;18.69;39.85
81162;BME280;70638;-33.792;151.032;2023-08-21T05:21:49;101303.72;;;19.07;38.65
81162;BME280;70638;-33.792;151.032;2023-08-21T05:24:52;101304.66;;;18.87;38.11
81162;BME280;70638;-33.792;151.032;2023-08-21T05:26:50;101306.06;;;18.73;38.66
81162;BME280;70638;-33.792;151.032;2023-08-21T05:29:20;101301.59;;;19.07;37.54
81162;BME280;70638;-33.792;151.032;2023-08-21T05:31:51;101304.75;;;18.91;38.15
81162;BME280;70638;-33.792;151.032;2023-08-21T05:34:28;101296.91;;;18.84;39.36
81162;BME280;70638;-33.792;151.032;2023-08-21T05:36:51;101291.59;;;18.72;39.91
81162;BME280;70638;-33.792;151.032;2023-08-21T05:39:22;101298.33;;;18.55;41.03
81162;BME280;70638;-33.792;151.032;2023-08-21T05:41:52;101299.80;;;18.30;42.84
81162;BME280;70638;-33.792;151.032;2023-08-21T05:44:22;101300.19;;;18.17;42.25
81162;BME280;70638;-33.792;151.032;2023-08-21T05:46:52;101300.66;;;18.29;41.52
81162;BME280;70638;-33.792;151.032;2023-08-21T05:49:23;101299.52;;;18.55;41.93
81162;BME280;70638;-33.792;151.032;2023-08-21T05:51:53;101301.73;;;18.61;41.13
81162;BME280;70638;-33.792;151.032;2023-08-21T05:54:27;101304.88;;;18.68;40.62
81162;BME280;70638;-33.792;151.032;2023-08-21T05:56:54;101304.52;;;18.52;41.36
81162;BME280;70638;-33.792;151.032;2023-08-21T05:59:29;101312.06;;;18.33;41.53
81162;BME280;70638;-33.792;151.032;2023-08-21T06:01:55;101314.15;;;18.20;42.35
81162;BME280;70638;-33.792;151.032;2023-08-21T06:04:25;101314.14;;;18.14;44.12
81162;BME280;70638;-33.792;151.032;2023-08-21T06:06:55;101313.78;;;18.04;42.14
81162;BME280;70638;-33.792;151.032;2023-08-21T06:09:25;101312.26;;;18.15;42.38
81162;BME280;70638;-33.792;151.032;2023-08-21T06:11:56;101311.97;;;18.30;42.57
81162;BME280;70638;-33.792;151.032;2023-08-21T06:14:40;101310.93;;;18.61;41.96
81162;BME280;70638;-33.792;151.032;2023-08-21T06:16:57;101308.69;;;18.43;41.75
81162;BME280;70638;-33.792;151.032;2023-08-21T06:19:27;101310.84;;;18.56;48.83
81162;BME280;70638;-33.792;151.032;2023-08-21T06:21:58;101313.76;;;18.33;50.59
81162;BME280;70638;-33.792;151.032;2023-08-21T06:24:28;101320.96;;;18.19;52.71
81162;BME280;70638;-33.792;151.032;2023-08-21T06:26:58;101323.20;;;18.03;52.84
81162;BME280;70638;-33.792;151.032;2023-08-21T06:29:29;101326.44;;;18.03;52.96
81162;BME280;70638;-33.792;151.032;2023-08-21T06:31:59;101325.91;;;17.98;53.42
81162;BME280;70638;-33.792;151.032;2023-08-21T06:34:29;101333.69;;;17.84;54.43
81162;BME280;70638;-33.792;151.032;2023-08-21T06:37:05;101331.45;;;17.72;54.59
81162;BME280;70638;-33.792;151.032;2023-08-21T06:39:29;101333.47;;;17.65;54.95
81162;BME280;70638;-33.792;151.032;2023-08-21T06:42:00;101338.23;;;17.39;56.11
81162;BME280;70638;-33.792;151.032;2023-08-21T06:44:30;101337.73;;;17.27;56.12
81162;BME280;70638;-33.792;151.032;2023-08-21T06:47:00;101342.59;;;17.32;56.17
81162;BME280;70638;-33.792;151.032;2023-08-21T06:49:30;101344.96;;;17.18;57.44
81162;BME280;70638;-33.792;151.032;2023-08-21T06:52:00;101345.84;;;17.19;56.95
81162;BME280;70638;-33.792;151.032;2023-08-21T06:54:30;101351.06;;;17.03;57.97
81162;BME280;70638;-33.792;151.032;2023-08-21T06:57:05;101346.98;;;16.93;58.60
81162;BME280;70638;-33.792;151.032;2023-08-21T06:59:31;101348.12;;;17.10;58.62
81162;BME280;70638;-33.792;151.032;2023-08-21T07:02:02;101352.09;;;16.85;60.46
81162;BME280;70638;-33.792;151.032;2023-08-21T07:04:32;101352.81;;;16.59;61.76
81162;BME280;70638;-33.792;151.032;2023-08-21T07:07:02;101358.59;;;16.43;62.09
81162;BME280;70638;-33.792;151.032;2023-08-21T07:09:32;101363.05;;;16.31;63.05
81162;BME280;70638;-33.792;151.032;2023-08-21T07:12:04;101368.55;;;16.37;62.77
81162;BME280;70638;-33.792;151.032;2023-08-21T07:14:33;101365.97;;;16.36;63.36
81162;BME280;70638;-33.792;151.032;2023-08-21T07:17:03;101369.58;;;16.25;64.15
81162;BME280;70638;-33.792;151.032;2023-08-21T07:19:39;101376.03;;;16.10;65.15
81162;BME280;70638;-33.792;151.032;2023-08-21T07:22:04;101374.23;;;16.01;65.43
81162;BME280;70638;-33.792;151.032;2023-08-21T07:24:34;101375.42;;;15.85;66.03
81162;BME280;70638;-33.792;151.032;2023-08-21T07:27:05;101376.48;;;15.66;66.90
81162;BME280;70638;-33.792;151.032;2023-08-21T07:29:35;101372.25;;;15.58;67.37
81162;BME280;70638;-33.792;151.032;2023-08-21T07:32:06;101367.69;;;15.49;68.22
81162;BME280;70638;-33.792;151.032;2023-08-21T07:34:36;101370.79;;;15.36;68.25
81162;BME280;70638;-33.792;151.032;2023-08-21T07:37:07;101366.89;;;15.31;68.37
81162;BME280;70638;-33.792;151.032;2023-08-21T07:39:42;101369.59;;;15.19;69.01
81162;BME280;70638;-33.792;151.032;2023-08-21T07:42:07;101368.41;;;15.08;69.88
81162;BME280;70638;-33.792;151.032;2023-08-21T07:44:37;101372.07;;;14.91;70.95
81162;BME280;70638;-33.792;151.032;2023-08-21T07:47:07;101370.48;;;14.77;71.37
81162;BME280;70638;-33.792;151.032;2023-08-21T07:49:37;101376.05;;;14.85;70.63
81162;BME280;70638;-33.792;151.032;2023-08-21T07:52:08;101372.05;;;14.80;70.73
81162;BME280;70638;-33.792;151.032;2023-08-21T07:54:38;101375.80;;;15.00;68.50
81162;BME280;70638;-33.792;151.032;2023-08-21T07:57:08;101376.45;;;15.05;68.59
81162;BME280;70638;-33.792;151.032;2023-08-21T08:02:10;101376.88;;;15.09;67.28
81162;BME280;70638;-33.792;151.032;2023-08-21T08:04:40;101377.72;;;15.03;66.62
81162;BME280;70638;-33.792;151.032;2023-08-21T08:07:10;101379.58;;;14.98;66.58
81162;BME280;70638;-33.792;151.032;2023-08-21T08:09:40;101380.76;;;14.94;65.68
81162;BME280;70638;-33.792;151.032;2023-08-21T08:12:10;101378.00;;;14.95;64.96
81162;BME280;70638;-33.792;151.032;2023-08-21T08:14:41;101378.41;;;14.89;65.05
81162;BME280;70638;-33.792;151.032;2023-08-21T08:17:11;101379.34;;;14.84;65.52
81162;BME280;70638;-33.792;151.032;2023-08-21T08:19:41;101378.55;;;14.74;65.68
81162;BME280;70638;-33.792;151.032;2023-08-21T08:22:16;101385.27;;;14.70;65.41
81162;BME280;70638;-33.792;151.032;2023-08-21T08:24:42;101391.28;;;14.66;64.75
81162;BME280;70638;-33.792;151.032;2023-08-21T08:27:13;101402.25;;;14.69;64.45
81162;BME280;70638;-33.792;151.032;2023-08-21T08:29:43;101404.74;;;14.70;64.38
81162;BME280;70638;-33.792;151.032;2023-08-21T08:32:13;101409.62;;;14.74;63.89
81162;BME280;70638;-33.792;151.032;2023-08-21T08:34:43;101416.25;;;14.67;63.83
81162;BME280;70638;-33.792;151.032;2023-08-21T08:37:13;101419.33;;;14.49;65.41
81162;BME280;70638;-33.792;151.032;2023-08-21T08:39:43;101429.25;;;14.45;65.17
81162;BME280;70638;-33.792;151.032;2023-08-21T08:42:14;101432.22;;;14.29;66.29
81162;BME280;70638;-33.792;151.032;2023-08-21T08:44:44;101429.03;;;14.17;66.45
81162;BME280;70638;-33.792;151.032;2023-08-21T08:47:17;101432.70;;;14.16;66.25
81162;BME280;70638;-33.792;151.032;2023-08-21T08:49:47;101428.78;;;14.10;66.90
81162;BME280;70638;-33.792;151.032;2023-08-21T08:52:15;101434.11;;;13.98;67.48
81162;BME280;70638;-33.792;151.032;2023-08-21T08:54:45;101435.43;;;13.93;67.26
81162;BME280;70638;-33.792;151.032;2023-08-21T08:57:15;101436.47;;;13.90;68.62
81162;BME280;70638;-33.792;151.032;2023-08-21T08:59:45;101438.27;;;13.80;68.38
81162;BME280;70638;-33.792;151.032;2023-08-21T09:02:16;101439.00;;;13.83;67.67
81162;BME280;70638;-33.792;151.032;2023-08-21T09:04:51;101440.24;;;13.85;67.60
81162;BME280;70638;-33.792;151.032;2023-08-21T09:07:17;101441.36;;;13.87;67.61
81162;BME280;70638;-33.792;151.032;2023-08-21T09:09:47;101444.47;;;13.90;67.69
81162;BME280;70638;-33.792;151.032;2023-08-21T09:12:17;101441.04;;;13.90;67.66
81162;BME280;70638;-33.792;151.032;2023-08-21T09:14:47;101443.62;;;13.86;67.57
81162;BME280;70638;-33.792;151.032;2023-08-21T09:17:17;101449.42;;;13.81;68.04
81162;BME280;70638;-33.792;151.032;2023-08-21T09:19:48;101446.81;;;13.71;69.60
81162;BME280;70638;-33.792;151.032;2023-08-21T09:22:18;101451.14;;;13.63;68.81
81162;BME280;70638;-33.792;151.032;2023-08-21T09:27:19;101453.49;;;13.66;68.90
81162;BME280;70638;-33.792;151.032;2023-08-21T09:29:49;101453.65;;;13.69;69.08
81162;BME280;70638;-33.792;151.032;2023-08-21T09:32:20;101462.94;;;13.80;68.48
81162;BME280;70638;-33.792;151.032;2023-08-21T09:34:50;101460.75;;;13.80;69.14
81162;BME280;70638;-33.792;151.032;2023-08-21T09:37:21;101463.91;;;13.74;68.87
81162;BME280;70638;-33.792;151.032;2023-08-21T09:39:51;101462.43;;;13.69;68.98
81162;BME280;70638;-33.792;151.032;2023-08-21T09:42:21;101467.23;;;13.72;68.72
81162;BME280;70638;-33.792;151.032;2023-08-21T09:44:52;101470.70;;;13.73;69.12
81162;BME280;70638;-33.792;151.032;2023-08-21T09:47:27;101473.20;;;13.74;68.82
81162;BME280;70638;-33.792;151.032;2023-08-21T09:49:53;101473.56;;;13.72;69.00
81162;BME280;70638;-33.792;151.032;2023-08-21T09:52:24;101474.75;;;13.65;68.99
81162;BME280;70638;-33.792;151.032;2023-08-21T09:54:57;101470.80;;;13.68;68.82
81162;BME280;70638;-33.792;151.032;2023-08-21T09:57:24;101474.16;;;13.71;68.59
81162;BME280;70638;-33.792;151.032;2023-08-21T09:59:55;101476.95;;;13.72;68.62
81162;BME280;70638;-33.792;151.032;2023-08-21T10:02:26;101480.14;;;13.68;68.53
81162;BME280;70638;-33.792;151.032;2023-08-21T10:04:56;101485.33;;;13.73;68.72
81162;BME280;70638;-33.792;151.032;2023-08-21T10:07:27;101482.41;;;13.77;68.25
81162;BME280;70638;-33.792;151.032;2023-08-21T10:09:57;101476.89;;;13.80;68.73
81162;BME280;70638;-33.792;151.032;2023-08-21T10:12:27;101481.45;;;13.84;68.09
81162;BME280;70638;-33.792;151.032;2023-08-21T10:14:57;101488.19;;;13.76;68.25
81162;BME280;70638;-33.792;151.032;2023-08-21T10:17:28;101488.69;;;13.75;68.54
81162;BME280;70638;-33.792;151.032;2023-08-21T10:20:03;101484.20;;;13.75;68.71
81162;BME280;70638;-33.792;151.032;2023-08-21T10:22:43;101482.58;;;13.78;68.29
81162;BME280;70638;-33.792;151.032;2023-08-21T10:24:59;101478.30;;;13.82;68.19
81162;BME280;70638;-33.792;151.032;2023-08-21T10:27:34;101484.48;;;13.83;67.82
81162;BME280;70638;-33.792;151.032;2023-08-21T10:30:12;101487.42;;;13.86;67.85
81162;BME280;70638;-33.792;151.032;2023-08-21T10:32:31;101487.64;;;13.87;68.35
81162;BME280;70638;-33.792;151.032;2023-08-21T10:35:01;101489.23;;;13.84;67.79
81162;BME280;70638;-33.792;151.032;2023-08-21T10:37:31;101487.92;;;13.79;68.06
81162;BME280;70638;-33.792;151.032;2023-08-21T10:40:02;101487.81;;;13.77;68.16
81162;BME280;70638;-33.792;151.032;2023-08-21T10:42:41;101483.06;;;13.69;68.83
81162;BME280;70638;-33.792;151.032;2023-08-21T10:45:10;101479.23;;;13.61;68.91
81162;BME280;70638;-33.792;151.032;2023-08-21T10:47:33;101474.20;;;13.56;69.34
81162;BME280;70638;-33.792;151.032;2023-08-21T10:50:08;101470.84;;;13.57;68.84
81162;BME280;70638;-33.792;151.032;2023-08-21T10:52:38;101472.86;;;13.57;68.65
81162;BME280;70638;-33.792;151.032;2023-08-21T10:55:04;101479.35;;;13.56;70.03
81162;BME280;70638;-33.792;151.032;2023-08-21T10:57:34;101482.36;;;13.52;69.30
81162;BME280;70638;-33.792;151.032;2023-08-21T11:00:13;101487.71;;;13.50;69.38
81162;BME280;70638;-33.792;151.032;2023-08-21T11:02:36;101493.02;;;13.48;69.94
81162;BME280;70638;-33.792;151.032;2023-08-21T11:05:06;101497.91;;;13.47;69.57
81162;BME280;70638;-33.792;151.032;2023-08-21T11:07:40;101501.95;;;13.42;69.56
81162;BME280;70638;-33.792;151.032;2023-08-21T11:10:14;101510.26;;;13.32;70.35
81162;BME280;70638;-33.792;151.032;2023-08-21T11:12:37;101507.11;;;13.13;71.47
81162;BME280;70638;-33.792;151.032;2023-08-21T11:15:08;101511.73;;;13.00;71.50
81162;BME280;70638;-33.792;151.032;2023-08-21T11:17:38;101512.05;;;12.84;71.99
81162;BME280;70638;-33.792;151.032;2023-08-21T11:20:10;101514.95;;;12.65;72.99
81162;BME280;70638;-33.792;151.032;2023-08-21T11:22:39;101519.65;;;12.52;73.89
81162;BME280;70638;-33.792;151.032;2023-08-21T11:25:10;101525.06;;;12.41;73.99
81162;BME280;70638;-33.792;151.032;2023-08-21T11:27:41;101527.02;;;12.22;74.81
81162;BME280;70638;-33.792;151.032;2023-08-21T11:30:11;101529.70;;;12.08;75.04
81162;BME280;70638;-33.792;151.032;2023-08-21T11:32:40;101532.17;;;11.94;75.65
81162;BME280;70638;-33.792;151.032;2023-08-21T11:35:11;101533.91;;;11.84;76.08
81162;BME280;70638;-33.792;151.032;2023-08-21T11:37:45;101526.62;;;11.72;76.46
81162;BME280;70638;-33.792;151.032;2023-08-21T11:40:13;101526.78;;;11.63;77.08
81162;BME280;70638;-33.792;151.032;2023-08-21T11:42:43;101525.83;;;11.57;77.62
81162;BME280;70638;-33.792;151.032;2023-08-21T11:45:13;101528.20;;;11.49;78.07
81162;BME280;70638;-33.792;151.032;2023-08-21T11:47:43;101527.75;;;11.38;78.92
81162;BME280;70638;-33.792;151.032;2023-08-21T11:50:16;101527.89;;;11.31;79.15
81162;BME280;70638;-33.792;151.032;2023-08-21T11:52:44;101526.83;;;11.20;80.07
81162;BME280;70638;-33.792;151.032;2023-08-21T11:55:17;101525.69;;;11.20;79.93
81162;BME280;70638;-33.792;151.032;2023-08-21T11:57:49;101527.55;;;11.10;80.41
81162;BME280;70638;-33.792;151.032;2023-08-21T12:00:16;101526.72;;;11.03;80.73
81162;BME280;70638;-33.792;151.032;2023-08-21T12:02:56;101527.43;;;11.02;80.76
81162;BME280;70638;-33.792;151.032;2023-08-21T12:05:16;101526.26;;;10.98;80.97
81162;BME280;70638;-33.792;151.032;2023-08-21T12:07:46;101526.30;;;10.92;81.10
81162;BME280;70638;-33.792;151.032;2023-08-21T12:10:25;101532.03;;;10.90;81.15
81162;BME280;70638;-33.792;151.032;2023-08-21T12:12:47;101535.30;;;10.87;81.29
81162;BME280;70638;-33.792;151.032;2023-08-21T12:15:17;101531.11;;;10.80;81.70
81162;BME280;70638;-33.792;151.032;2023-08-21T12:17:47;101530.58;;;10.71;81.91
81162;BME280;70638;-33.792;151.032;2023-08-21T12:20:17;101527.10;;;10.65;82.08
81162;BME280;70638;-33.792;151.032;2023-08-21T12:22:47;101529.52;;;10.60;82.48
81162;BME280;70638;-33.792;151.032;2023-08-21T12:25:19;101530.89;;;10.56;82.80
81162;BME280;70638;-33.792;151.032;2023-08-21T12:27:48;101522.81;;;10.56;82.67
81162;BME280;70638;-33.792;151.032;2023-08-21T12:30:21;101520.64;;;10.52;83.00
81162;BME280;70638;-33.792;151.032;2023-08-21T12:32:54;101520.70;;;10.54;83.21
81162;BME280;70638;-33.792;151.032;2023-08-21T12:35:18;101517.21;;;10.55;83.27
81162;BME280;70638;-33.792;151.032;2023-08-21T12:37:48;101511.61;;;10.53;83.38
81162;BME280;70638;-33.792;151.032;2023-08-21T12:40:18;101503.59;;;10.48;83.16
81162;BME280;70638;-33.792;151.032;2023-08-21T12:42:49;101505.31;;;10.49;83.17
81162;BME280;70638;-33.792;151.032;2023-08-21T12:45:19;101512.77;;;10.44;83.27
81162;BME280;70638;-33.792;151.032;2023-08-21T12:47:49;101509.11;;;10.37;83.72
81162;BME280;70638;-33.792;151.032;2023-08-21T12:50:21;101511.11;;;10.36;84.56